Time;durP1;ratioP1;P1;durP2;ratioP2;P2;SDS_P1;SDS_P2;PMS_P1;PMS_P2;Temp;Humidity;BMP_temperature;BMP_pressure;BME280_temperature;BME280_humidity;BME280_pressure;Samples;Min_cycle;Max_cycle;Signal;HPM_P1;HPM_P2
2023/03/13 00:01:15;;;;;;;7.15;2.35;;;;;;;18.84;43.70;100188.59;5033246;28;20068;-73
2023/03/13 00:03:41;;;;;;;8.02;2.47;;;;;;;18.84;43.87;100185.94;5033634;28;20488;-73
2023/03/13 00:06:06;;;;;;;8.20;2.28;;;;;;;18.85;44.07;100184.16;5033261;28;20030;-75
2023/03/13 00:08:32;;;;;;;6.78;1.73;;;;;;;18.84;43.79;100175.38;5033442;28;20041;-76
2023/03/13 00:11:00;;;;;;;8.20;2.15;;;;;;;18.81;43.87;100166.91;5033228;28;20036;-76
2023/03/13 00:13:26;;;;;;;7.78;2.13;;;;;;;18.80;43.83;100165.22;5033836;28;20551;-75
2023/03/13 00:16:02;;;;;;;7.57;2.20;;;;;;;18.81;43.97;100148.41;5032766;28;20033;-77
2023/03/13 00:18:28;;;;;;;8.25;2.08;;;;;;;18.80;43.98;100149.38;5033308;28;20060;-74
2023/03/13 00:21:07;;;;;;;6.07;2.10;;;;;;;18.76;44.04;100143.56;5032793;28;20037;-75
2023/03/13 00:23:34;;;;;;;7.28;2.25;;;;;;;18.79;43.89;100131.91;5033004;28;20024;-75
2023/03/13 00:26:08;;;;;;;8.88;2.35;;;;;;;18.76;44.06;100129.56;5033336;28;20100;-76
2023/03/13 00:28:35;;;;;;;;;;;;;;;18.80;43.84;100129.13;5033391;28;20037;-75
2023/03/13 00:31:01;;;;;;;5.95;1.92;;;;;;;18.79;44.02;100122.16;5031205;28;20365;-76
2023/03/13 00:33:26;;;;;;;6.20;2.08;;;;;;;18.77;44.20;100115.34;5033094;28;20119;-74
2023/03/13 00:35:51;;;;;;;8.02;2.30;;;;;;;18.75;44.23;100109.41;5032748;28;20132;-72
2023/03/13 00:38:17;;;;;;;8.30;2.25;;;;;;;18.72;44.04;100097.31;5032676;28;20116;-74
2023/03/13 00:40:42;;;;;;;8.18;2.10;;;;;;;18.74;44.12;100099.81;5032715;28;20040;-74
2023/03/13 00:43:07;;;;;;;6.97;1.98;;;;;;;18.69;44.29;100084.41;5032594;28;20111;-75
2023/03/13 00:45:32;;;;;;;7.00;2.27;;;;;;;18.72;44.09;100091.22;5032694;28;20029;-75
2023/03/13 00:47:58;;;;;;;6.65;2.00;;;;;;;18.67;44.10;100074.03;5032710;28;20622;-75
2023/03/13 00:50:23;;;;;;;8.20;2.20;;;;;;;18.68;44.42;100078.31;5032393;28;20040;-75
2023/03/13 00:52:48;;;;;;;10.55;2.55;;;;;;;18.68;44.05;100073.03;5031245;28;20754;-75
2023/03/13 00:55:14;;;;;;;8.52;2.00;;;;;;;18.67;44.30;100063.47;5032627;28;20418;-75
2023/03/13 00:57:39;;;;;;;8.88;2.40;;;;;;;18.67;44.36;100063.47;5032370;28;20032;-75
2023/03/13 01:00:05;;;;;;;6.68;2.03;;;;;;;18.63;44.37;100050.72;5030661;28;20037;-73
2023/03/13 01:02:30;;;;;;;6.40;1.77;;;;;;;18.61;44.30;100048.22;5032762;28;20037;-75
2023/03/13 01:04:56;;;;;;;7.13;2.05;;;;;;;18.64;44.42;100052.34;5032188;28;20036;-75
2023/03/13 01:07:21;;;;;;;8.77;2.03;;;;;;;18.64;44.46;100036.53;5032485;28;20047;-74
2023/03/13 01:09:46;;;;;;;7.00;1.90;;;;;;;18.63;44.39;100038.34;5032280;28;20478;-74
2023/03/13 01:12:12;;;;;;;6.65;2.10;;;;;;;18.61;44.64;100020.97;5032393;28;20033;-75
2023/03/13 01:14:37;;;;;;;7.32;2.50;;;;;;;18.61;44.54;100016.56;5032114;28;20064;-73
2023/03/13 01:17:02;;;;;;;7.75;2.13;;;;;;;18.56;44.51;100005.59;5032478;28;20060;-75
2023/03/13 01:19:27;;;;;;;7.45;2.05;;;;;;;18.58;44.55;100000.16;5031780;28;20057;-74
2023/03/13 01:21:53;;;;;;;6.55;2.10;;;;;;;18.58;44.66;100001.03;5032091;28;20400;-75
2023/03/13 01:24:19;;;;;;;5.53;1.90;;;;;;;18.56;44.66;99992.41;5031767;28;20032;-75
2023/03/13 01:26:44;;;;;;;6.28;2.15;;;;;;;18.58;44.54;99992.25;5031685;28;20041;-75
2023/03/13 01:29:09;;;;;;;7.07;1.98;;;;;;;18.54;44.67;99981.16;5031265;28;20035;-74
2023/03/13 01:31:35;;;;;;;6.05;2.17;;;;;;;18.55;44.54;99976.72;5032707;28;20036;-73
2023/03/13 01:34:04;;;;;;;6.07;2.15;;;;;;;18.50;44.83;99964.00;5031703;28;20063;-75
2023/03/13 01:36:30;;;;;;;6.05;1.90;;;;;;;18.55;44.96;99974.91;5032345;28;20442;-74
2023/03/13 01:38:58;;;;;;;6.57;1.90;;;;;;;18.52;44.93;99969.94;5032024;28;20571;-76
2023/03/13 01:41:25;;;;;;;5.63;1.83;;;;;;;18.55;45.00;99969.66;5031582;28;20080;-75
2023/03/13 01:43:51;;;;;;;7.47;1.80;;;;;;;18.52;44.96;99962.03;5031276;28;20034;-75
2023/03/13 01:46:23;;;;;;;5.55;1.80;;;;;;;18.51;45.01;99959.53;5030385;28;20056;-75
2023/03/13 01:49:03;;;;;;;5.63;1.80;;;;;;;18.52;45.08;99956.75;5031441;28;20441;-74
2023/03/13 01:51:40;;;;;;;6.13;1.83;;;;;;;18.52;45.10;99951.47;5031303;28;20408;-74
2023/03/13 01:54:17;;;;;;;6.75;1.75;;;;;;;18.49;45.16;99942.03;5031281;28;20037;-75
2023/03/13 01:57:04;;;;;;;5.78;1.60;;;;;;;18.49;45.08;99933.28;5031830;28;20037;-74
2023/03/13 01:59:39;;;;;;;5.70;1.50;;;;;;;18.45;45.18;99930.13;5031630;28;20363;-76
2023/03/13 02:02:04;;;;;;;;;;;;;;;18.52;45.16;99926.88;5031639;28;20087;-73
2023/03/13 02:04:35;;;;;;;6.05;1.75;;;;;;;18.51;45.22;99920.78;5029531;28;19936;-75
2023/03/13 02:07:11;;;;;;;4.85;1.48;;;;;;;18.49;45.33;99902.47;5031322;28;20040;-75
2023/03/13 02:09:40;;;;;;;5.10;1.77;;;;;;;18.48;45.25;99899.97;5031504;28;20132;-74
2023/03/13 02:12:13;;;;;;;8.07;1.77;;;;;;;18.45;45.33;99890.56;5031113;28;20052;-75
2023/03/13 02:14:42;;;;;;;6.15;1.73;;;;;;;18.45;45.35;99880.00;5031744;28;20037;-75
2023/03/13 02:17:07;;;;;;;4.25;1.52;;;;;;;18.42;45.56;99882.94;5031093;28;20549;-75
2023/03/13 02:19:43;;;;;;;4.35;1.40;;;;;;;18.41;45.54;99872.53;5031832;28;20068;-75
2023/03/13 02:22:32;;;;;;;5.05;1.40;;;;;;;18.43;45.49;99854.75;5031528;28;20108;-74
2023/03/13 02:25:16;;;;;;;5.60;1.58;;;;;;;18.43;45.69;99844.19;5031250;28;20037;-73
2023/03/13 02:27:42;;;;;;;4.68;1.67;;;;;;;18.40;45.35;99834.75;5030430;28;20040;-74
2023/03/13 02:30:09;;;;;;;4.90;1.70;;;;;;;18.41;45.39;99838.25;5029837;28;20071;-74
2023/03/13 02:32:35;;;;;;;4.28;1.48;;;;;;;18.43;45.50;99838.91;5031664;28;20120;-73
2023/03/13 02:35:05;;;;;;;5.10;1.60;;;;;;;18.40;45.72;99836.59;5030614;28;20033;-75
2023/03/13 02:37:32;;;;;;;4.25;1.45;;;;;;;18.39;45.67;99835.75;5030772;28;20043;-75
2023/03/13 02:40:01;;;;;;;5.60;1.50;;;;;;;18.42;45.66;99837.25;5031078;28;20040;-74
2023/03/13 02:42:27;;;;;;;4.20;1.73;;;;;;;18.40;45.92;99840.03;5030982;28;20029;-73
2023/03/13 02:44:53;;;;;;;4.13;1.20;;;;;;;18.41;45.78;99831.16;5029094;28;20124;-76
2023/03/13 02:47:23;;;;;;;4.43;1.50;;;;;;;18.42;45.86;99843.38;5031227;28;20037;-75
2023/03/13 02:49:49;;;;;;;4.00;1.23;;;;;;;18.38;45.95;99828.81;5030082;28;20062;-74
2023/03/13 02:52:32;;;;;;;5.90;1.30;;;;;;;18.40;46.00;99828.66;5021269;28;20120;-75
2023/03/13 02:55:01;;;;;;;4.35;1.20;;;;;;;18.40;45.98;99820.75;5030953;28;20032;-75
2023/03/13 02:57:28;;;;;;;4.45;1.38;;;;;;;18.39;46.04;99827.84;5030971;28;20572;-75
2023/03/13 02:59:53;;;;;;;6.88;1.88;;;;;;;18.39;46.02;99827.84;5031008;28;20048;-74
2023/03/13 03:02:19;;;;;;;4.13;1.27;;;;;;;18.38;46.13;99825.34;5029155;28;20386;-75
2023/03/13 03:04:44;;;;;;;3.53;1.40;;;;;;;18.37;46.13;99829.78;5031489;28;20044;-77
2023/03/13 03:07:10;;;;;;;4.50;1.30;;;;;;;18.36;46.11;99824.66;5035548;28;20029;-74
2023/03/13 03:09:35;;;;;;;5.05;1.50;;;;;;;18.36;46.44;99828.16;5024891;28;20789;-73
2023/03/13 03:12:00;;;;;;;3.42;1.00;;;;;;;18.40;46.38;99841.84;5034939;28;20043;-74
2023/03/13 03:14:26;;;;;;;3.75;1.23;;;;;;;18.33;46.38;99833.72;5034707;28;20060;-74
2023/03/13 03:16:51;;;;;;;5.95;1.55;;;;;;;18.37;46.34;99831.59;5034576;28;20358;-74
2023/03/13 03:19:16;;;;;;;3.33;1.05;;;;;;;18.31;46.30;99827.78;5034342;28;20051;-74
2023/03/13 03:21:42;;;;;;;3.92;1.40;;;;;;;18.32;46.41;99826.78;5033771;28;20025;-74
2023/03/13 03:24:07;;;;;;;3.75;1.30;;;;;;;18.33;46.59;99831.09;5034697;28;20448;-76
2023/03/13 03:26:34;;;;;;;4.10;1.63;;;;;;;18.36;46.69;99833.41;5034438;28;20063;-72
2023/03/13 03:28:59;;;;;;;3.85;1.25;;;;;;;18.34;46.63;99814.28;5034129;28;20041;-73
2023/03/13 03:31:25;;;;;;;3.05;1.10;;;;;;;18.35;46.57;99826.47;5033627;28;20086;-75
2023/03/13 03:33:50;;;;;;;2.83;0.90;;;;;;;18.33;46.73;99811.78;5033953;28;20029;-75
2023/03/13 03:36:19;;;;;;;4.07;1.30;;;;;;;18.33;46.93;99817.06;5034447;28;20061;-74
2023/03/13 03:38:44;;;;;;;2.80;1.10;;;;;;;18.32;46.93;99821.50;5033499;28;20081;-76
2023/03/13 03:41:11;;;;;;;3.88;1.25;;;;;;;18.32;46.61;99810.94;5033756;28;20068;-77
2023/03/13 03:43:36;;;;;;;3.53;1.08;;;;;;;18.34;47.07;99821.34;5033597;28;20078;-75
2023/03/13 03:46:02;;;;;;;2.63;1.08;;;;;;;18.29;46.84;99817.38;5033968;28;20045;-74
2023/03/13 03:48:27;;;;;;;2.70;1.05;;;;;;;18.31;46.87;99822.50;5034426;28;20048;-76
2023/03/13 03:50:53;;;;;;;4.75;1.10;;;;;;;18.31;47.06;99820.69;5033579;28;20020;-74
2023/03/13 03:53:18;;;;;;;4.82;1.27;;;;;;;18.32;47.20;99826.78;5033634;28;20033;-75
2023/03/13 03:55:43;;;;;;;3.47;1.10;;;;;;;18.30;47.14;99811.09;5033618;28;20389;-74
2023/03/13 03:58:09;;;;;;;2.67;0.98;;;;;;;18.30;47.10;99815.56;5024651;28;20477;-75
2023/03/13 04:00:34;;;;;;;3.08;1.05;;;;;;;18.28;46.95;99815.69;5033476;28;20033;-74
2023/03/13 04:02:59;;;;;;;3.20;1.20;;;;;;;18.29;47.15;99809.47;5033570;28;20055;-74
2023/03/13 04:05:25;;;;;;;3.72;1.10;;;;;;;18.26;46.93;99798.34;5033584;28;20557;-76
2023/03/13 04:07:50;;;;;;;3.40;1.00;;;;;;;18.29;47.01;99801.56;5033233;28;20139;-75
2023/03/13 04:10:16;;;;;;;3.78;1.10;;;;;;;18.29;47.01;99811.25;5033989;28;20067;-75
2023/03/13 04:12:41;;;;;;;3.17;1.00;;;;;;;18.30;47.05;99811.09;5033762;28;20041;-76
2023/03/13 04:15:07;;;;;;;3.88;1.30;;;;;;;18.28;47.05;99796.44;5032289;28;20135;-75
2023/03/13 04:17:32;;;;;;;3.00;1.10;;;;;;;18.28;47.18;99802.53;5033292;28;20114;-75
2023/03/13 04:19:58;;;;;;;3.03;1.10;;;;;;;18.29;47.21;99801.56;5032952;28;20497;-74
2023/03/13 04:22:23;;;;;;;3.42;1.08;;;;;;;18.28;47.16;99780.59;5033374;28;20032;-77
2023/03/13 04:24:49;;;;;;;4.60;1.20;;;;;;;18.28;47.26;99776.16;5032389;28;20029;-75
2023/03/13 04:27:14;;;;;;;1.80;0.90;;;;;;;18.29;47.30;99775.19;5033401;28;20369;-76
2023/03/13 04:29:39;;;;;;;3.05;1.10;;;;;;;18.29;47.10;99759.34;5032807;28;20382;-76
2023/03/13 04:32:05;;;;;;;2.67;1.03;;;;;;;18.26;47.39;99762.28;5032427;28;20032;-74
2023/03/13 04:34:31;;;;;;;3.45;1.10;;;;;;;18.26;47.32;99749.09;5032698;28;20274;-75
2023/03/13 04:36:56;;;;;;;4.30;0.95;;;;;;;18.29;47.51;99754.06;5033103;28;20034;-76
2023/03/13 04:39:24;;;;;;;3.50;1.02;;;;;;;18.27;47.39;99749.91;5032840;28;20969;-75
2023/03/13 04:41:54;;;;;;;2.40;1.02;;;;;;;18.28;47.45;99741.03;5022912;28;20029;-75
2023/03/13 04:44:20;;;;;;;3.22;1.00;;;;;;;18.25;47.32;99741.34;5031949;28;20064;-75
2023/03/13 04:46:47;;;;;;;2.50;1.00;;;;;;;18.26;47.49;99746.47;5032243;28;20029;-76
2023/03/13 04:49:13;;;;;;;2.90;1.00;;;;;;;18.26;47.53;99742.97;5032287;28;20982;-75
2023/03/13 04:51:42;;;;;;;3.30;0.93;;;;;;;18.25;47.64;99731.59;5032504;28;20099;-74
2023/03/13 04:54:08;;;;;;;3.42;1.05;;;;;;;18.25;47.54;99733.44;5032454;28;20037;-76
2023/03/13 04:56:33;;;;;;;2.67;1.15;;;;;;;18.24;47.47;99737.84;5032813;28;20037;-76
2023/03/13 04:58:58;;;;;;;2.95;1.10;;;;;;;18.21;47.66;99738.16;5032049;28;20037;-75
2023/03/13 05:01:24;;;;;;;2.37;0.90;;;;;;;18.24;47.44;99734.41;5032293;28;20103;-76
2023/03/13 05:03:49;;;;;;;1.52;0.73;;;;;;;18.23;47.47;99722.19;5032506;28;20274;-74
2023/03/13 05:06:14;;;;;;;3.08;1.10;;;;;;;18.24;47.63;99724.66;5032213;28;20508;-74
2023/03/13 05:08:40;;;;;;;2.47;0.90;;;;;;;18.23;47.58;99707.22;5032337;28;20040;-75
2023/03/13 05:11:05;;;;;;;3.10;1.20;;;;;;;18.25;47.58;99714.97;5032028;28;20036;-73
2023/03/13 05:13:30;;;;;;;2.83;1.00;;;;;;;18.25;47.60;99707.06;5031839;28;20072;-74
2023/03/13 05:15:56;;;;;;;2.20;0.90;;;;;;;18.24;47.43;99708.84;5032318;28;20100;-74
2023/03/13 05:18:22;;;;;;;2.63;1.00;;;;;;;18.23;47.64;99717.75;5031991;28;20444;-74
2023/03/13 05:20:47;;;;;;;3.03;0.90;;;;;;;18.23;47.62;99701.09;5031771;28;20132;-75
2023/03/13 05:23:12;;;;;;;3.65;1.40;;;;;;;18.22;47.66;99710.81;5031582;28;20040;-74
2023/03/13 05:25:38;;;;;;;1.98;0.90;;;;;;;18.24;48.00;99710.66;5031941;28;20032;-76
2023/03/13 05:28:03;;;;;;;2.58;1.00;;;;;;;18.24;47.69;99708.84;5031036;28;20060;-75
2023/03/13 05:30:28;;;;;;;2.50;0.90;;;;;;;18.23;47.97;99711.63;5031753;28;20434;-75
2023/03/13 05:32:54;;;;;;;3.08;1.00;;;;;;;18.24;47.98;99702.75;5031656;28;20041;-73
2023/03/13 05:35:19;;;;;;;2.90;1.25;;;;;;;18.22;47.79;99699.44;5031843;28;20040;-74
2023/03/13 05:37:45;;;;;;;2.97;1.20;;;;;;;18.21;48.04;99695.97;5031065;28;20037;-75
2023/03/13 05:40:11;;;;;;;2.50;1.00;;;;;;;18.21;47.86;99695.16;5029874;28;20084;-74
2023/03/13 05:42:37;;;;;;;3.78;1.00;;;;;;;18.20;47.95;99701.38;5031503;28;20389;-74
2023/03/13 05:45:03;;;;;;;3.95;1.17;;;;;;;18.20;47.93;99698.75;5031258;28;20627;-73
2023/03/13 05:47:28;;;;;;;2.80;1.08;;;;;;;18.20;47.91;99689.06;5031891;28;20916;-75
2023/03/13 05:49:54;;;;;;;3.30;1.17;;;;;;;18.19;47.87;99687.38;5031651;28;20127;-75
2023/03/13 05:52:19;;;;;;;4.35;1.45;;;;;;;18.15;47.80;99688.69;5031994;28;20079;-74
2023/03/13 05:54:44;;;;;;;2.85;0.90;;;;;;;18.22;47.90;99710.00;5031647;28;20048;-74
2023/03/13 05:57:09;;;;;;;4.10;1.08;;;;;;;18.19;47.86;99702.38;5030850;28;20037;-75
2023/03/13 05:59:35;;;;;;;3.72;1.30;;;;;;;18.18;47.98;99704.19;5030552;28;20169;-74
2023/03/13 06:02:00;;;;;;;3.60;1.02;;;;;;;18.16;47.74;99707.97;5031409;28;20044;-75
2023/03/13 06:04:25;;;;;;;3.70;1.23;;;;;;;18.16;47.28;99715.88;5031040;28;20284;-73
2023/03/13 06:06:51;;;;;;;2.20;0.85;;;;;;;18.16;47.37;99700.88;5031305;28;20039;-75
2023/03/13 06:09:16;;;;;;;2.58;1.20;;;;;;;18.16;47.63;99703.50;5030904;28;20029;-74
2023/03/13 06:11:41;;;;;;;3.63;1.00;;;;;;;18.10;47.62;99693.56;5031083;28;20048;-74
2023/03/13 06:14:07;;;;;;;3.03;1.00;;;;;;;18.22;47.76;99712.63;5031253;28;20041;-73
2023/03/13 06:16:33;;;;;;;2.00;0.85;;;;;;;18.23;47.99;99701.09;5030814;28;20032;-78
2023/03/13 06:18:59;;;;;;;2.15;0.80;;;;;;;18.23;47.97;99699.28;5031068;28;20045;-76
2023/03/13 06:21:24;;;;;;;4.00;1.10;;;;;;;18.25;47.87;99694.69;5030991;28;20045;-76
2023/03/13 06:23:49;;;;;;;4.10;1.17;;;;;;;18.29;47.87;99685.50;5030784;28;20036;-75
2023/03/13 06:26:14;;;;;;;2.33;0.90;;;;;;;18.31;48.02;99695.91;5031881;28;20038;-74
2023/03/13 06:28:40;;;;;;;2.72;0.93;;;;;;;18.36;48.13;99688.34;5030661;28;20263;-74
2023/03/13 06:31:06;;;;;;;2.08;0.90;;;;;;;18.39;48.01;99689.81;5031093;28;20029;-74
2023/03/13 06:33:32;;;;;;;2.78;1.00;;;;;;;18.40;48.00;99680.94;5030788;28;20041;-75
2023/03/13 06:35:59;;;;;;;5.63;1.10;;;;;;;18.39;47.92;99680.13;5030299;28;20458;-74
2023/03/13 06:38:24;;;;;;;4.13;1.25;;;;;;;18.45;47.91;99676.03;5032799;28;20123;-73
2023/03/13 06:40:50;;;;;;;3.42;0.88;;;;;;;18.51;47.69;99682.50;5034295;28;20107;-74
2023/03/13 06:43:15;;;;;;;2.53;0.90;;;;;;;18.50;47.81;99684.31;5035110;28;20131;-76
2023/03/13 06:45:40;;;;;;;2.85;1.10;;;;;;;18.52;47.86;99685.00;5034516;28;20386;-74
2023/03/13 06:48:06;;;;;;;2.85;0.93;;;;;;;18.56;47.82;99690.78;5035129;28;20045;-74
2023/03/13 06:50:31;;;;;;;2.45;0.90;;;;;;;18.57;47.90;99692.44;5034293;28;20061;-75
2023/03/13 06:52:56;;;;;;;2.28;0.95;;;;;;;18.57;47.64;99693.25;5035078;28;20033;-75
2023/03/13 06:55:22;;;;;;;3.85;1.02;;;;;;;18.62;47.74;99685.69;5034332;28;20428;-74
2023/03/13 06:57:49;;;;;;;3.15;1.15;;;;;;;18.62;47.58;99683.06;5035163;28;20120;-74
2023/03/13 07:00:15;;;;;;;2.85;0.90;;;;;;;18.64;47.67;99677.63;5032963;28;20047;-73
2023/03/13 07:02:40;;;;;;;3.80;1.10;;;;;;;18.63;47.72;99676.81;5033854;28;20719;-74
2023/03/13 07:05:06;;;;;;;4.07;1.35;;;;;;;18.65;47.31;99674.00;5034445;28;20037;-74
2023/03/13 07:07:32;;;;;;;2.67;1.00;;;;;;;18.68;47.47;99676.34;5034308;28;20148;-75
2023/03/13 07:09:58;;;;;;;2.35;0.90;;;;;;;18.68;47.43;99685.06;5025255;28;20029;-70
2023/03/13 07:12:23;;;;;;;2.67;0.95;;;;;;;18.69;47.74;99696.44;5034394;28;20522;-75
2023/03/13 07:14:48;;;;;;;2.90;0.93;;;;;;;18.68;47.43;99673.72;5034905;28;20108;-71
2023/03/13 07:17:14;;;;;;;2.67;0.95;;;;;;;18.70;47.37;99676.19;5034597;28;20137;-72
2023/03/13 07:19:39;;;;;;;2.85;0.90;;;;;;;18.70;47.54;99669.09;5033747;28;20040;-76
2023/03/13 07:22:04;;;;;;;3.30;0.80;;;;;;;18.71;47.49;99675.19;5034220;28;20067;-73
2023/03/13 07:24:30;;;;;;;3.65;1.00;;;;;;;18.70;47.38;99661.16;5025086;28;20263;-74
2023/03/13 07:26:55;;;;;;;3.75;1.10;;;;;;;18.72;47.33;99664.47;5036110;28;20029;-71
2023/03/13 07:29:20;;;;;;;3.10;1.00;;;;;;;18.75;47.39;99680.00;5034540;28;20021;-73
2023/03/13 07:31:46;;;;;;;3.70;1.13;;;;;;;18.72;47.51;99672.38;5033849;28;20087;-76
2023/03/13 07:34:11;;;;;;;4.53;1.15;;;;;;;18.73;47.29;99673.25;5034787;28;20038;-75
2023/03/13 07:36:36;;;;;;;3.13;1.10;;;;;;;18.74;47.42;99673.09;5033882;28;20112;-72
2023/03/13 07:39:02;;;;;;;2.80;1.00;;;;;;;18.74;47.53;99681.00;5033763;28;20029;-74
2023/03/13 07:41:27;;;;;;;2.95;1.10;;;;;;;18.74;47.35;99667.81;5034063;28;20400;-70
2023/03/13 07:43:53;;;;;;;3.15;1.00;;;;;;;18.73;47.34;99676.69;5034044;28;20029;-73
2023/03/13 07:46:18;;;;;;;3.28;1.10;;;;;;;18.76;47.42;99686.94;5033026;28;20033;-71
2023/03/13 07:48:44;;;;;;;3.65;1.05;;;;;;;18.74;47.48;99686.28;5034181;28;20135;-71
2023/03/13 07:51:12;;;;;;;3.17;1.05;;;;;;;18.78;47.47;99684.97;5033304;28;20040;-73
2023/03/13 07:53:38;;;;;;;3.97;1.10;;;;;;;18.79;47.53;99680.53;5037601;28;20040;-72
2023/03/13 07:56:05;;;;;;;3.78;1.10;;;;;;;18.75;47.44;99681.81;5034940;28;20663;-69
2023/03/13 07:58:34;;;;;;;4.32;1.15;;;;;;;18.77;47.83;99685.97;5033546;28;20613;-71
2023/03/13 08:01:00;;;;;;;5.28;1.88;;;;;;;18.75;47.67;99677.34;5033843;28;20040;-71
2023/03/13 08:03:26;;;;;;;6.15;1.60;;;;;;;18.76;48.26;99675.56;5033473;28;20033;-72
2023/03/13 08:05:59;;;;;;;5.30;1.10;;;;;;;18.76;48.28;99667.66;5033148;28;20039;-71
2023/03/13 08:08:25;;;;;;;2.67;1.03;;;;;;;18.77;48.39;99674.56;5033372;28;20037;-71
2023/03/13 08:10:50;;;;;;;2.30;0.98;;;;;;;18.79;48.29;99669.97;5033255;28;20428;-72
2023/03/13 08:13:15;;;;;;;5.00;1.35;;;;;;;18.77;48.26;99664.00;5034240;28;20033;-71
2023/03/13 08:15:40;;;;;;;4.20;1.20;;;;;;;18.78;48.44;99661.22;5033922;28;20425;-70
2023/03/13 08:18:06;;;;;;;4.35;1.30;;;;;;;18.81;48.53;99662.72;5033369;28;20285;-71
2023/03/13 08:20:31;;;;;;;3.95;1.10;;;;;;;18.79;48.44;99644.41;5033762;28;20416;-71
2023/03/13 08:22:56;;;;;;;5.28;1.20;;;;;;;18.78;48.48;99650.66;5033823;28;20063;-72
2023/03/13 08:25:22;;;;;;;3.60;1.20;;;;;;;18.80;48.51;99661.91;5033764;28;20036;-70
2023/03/13 08:27:47;;;;;;;3.20;1.02;;;;;;;18.82;48.66;99640.63;5033701;28;20371;-71
2023/03/13 08:30:13;;;;;;;3.67;1.20;;;;;;;18.84;48.60;99652.69;5033408;28;20059;-72
2023/03/13 08:32:38;;;;;;;3.67;1.20;;;;;;;18.76;48.69;99635.97;5033688;28;20033;-71
2023/03/13 08:35:04;;;;;;;3.67;1.30;;;;;;;18.87;48.74;99656.84;5033688;28;20033;-71
2023/03/13 08:37:29;;;;;;;12.98;4.63;;;;;;;18.82;48.68;99649.38;5032779;28;20041;-72
2023/03/13 08:39:55;;;;;;;3.90;1.40;;;;;;;18.90;48.91;99631.91;5033743;28;20039;-72
2023/03/13 08:42:21;;;;;;;4.82;1.20;;;;;;;18.91;48.95;99646.78;5032770;28;20048;-72
2023/03/13 08:44:49;;;;;;;6.00;1.40;;;;;;;18.87;48.70;99633.09;5033249;28;20108;-71
2023/03/13 08:47:14;;;;;;;5.32;1.30;;;;;;;18.91;49.08;99644.16;5033830;28;20486;-72
2023/03/13 08:49:40;;;;;;;4.47;1.23;;;;;;;18.95;48.95;99653.41;5033224;28;20029;-72
2023/03/13 08:52:06;;;;;;;4.47;1.30;;;;;;;18.95;48.75;99648.94;5032751;28;20034;-72
2023/03/13 08:54:32;;;;;;;3.65;1.10;;;;;;;18.98;48.54;99651.28;5032516;28;20041;-71
2023/03/13 08:56:58;;;;;;;3.15;1.10;;;;;;;18.99;48.90;99642.38;5032978;28;20037;-70
2023/03/13 08:59:24;;;;;;;4.45;1.42;;;;;;;19.00;48.81;99648.47;5033308;28;20465;-71
2023/03/13 09:01:49;;;;;;;3.85;1.48;;;;;;;18.99;49.12;99662.66;5030970;28;20033;-71
2023/03/13 09:04:15;;;;;;;3.15;1.23;;;;;;;18.95;49.48;99629.66;5031166;28;20044;-72
2023/03/13 09:06:40;;;;;;;3.67;1.10;;;;;;;19.02;49.06;99642.03;5030569;28;20045;-72
2023/03/13 09:09:07;;;;;;;4.65;1.40;;;;;;;19.09;48.79;99649.31;5031500;28;20444;-71
2023/03/13 09:11:33;;;;;;;4.03;1.20;;;;;;;19.15;48.58;99649.53;5031459;28;20036;-71
2023/03/13 09:13:58;;;;;;;4.32;1.58;;;;;;;19.14;48.71;99632.03;5032254;28;20143;-71
2023/03/13 09:16:26;;;;;;;4.10;1.35;;;;;;;19.16;48.62;99645.88;5030694;28;20566;-69
2023/03/13 09:18:52;;;;;;;3.20;1.15;;;;;;;19.20;48.41;99626.09;5031933;28;20227;-70
2023/03/13 09:21:34;;;;;;;5.32;1.48;;;;;;;19.24;48.36;99621.31;5031174;28;20508;-70
2023/03/13 09:24:00;;;;;;;3.35;1.08;;;;;;;19.26;48.51;99608.75;5031264;28;20469;-71
2023/03/13 09:26:26;;;;;;;4.43;1.20;;;;;;;19.28;48.38;99583.03;5030641;28;20033;-74
2023/03/13 09:28:52;;;;;;;5.10;1.30;;;;;;;19.24;48.43;99605.47;5030244;28;20064;-68
2023/03/13 09:31:29;;;;;;;4.18;1.45;;;;;;;19.29;48.17;99599.69;5031112;28;20474;-70
2023/03/13 09:33:54;;;;;;;3.80;1.15;;;;;;;19.38;47.99;99590.81;5030527;28;20034;-72
2023/03/13 09:36:22;;;;;;;3.83;1.40;;;;;;;19.39;47.88;99584.50;5031060;28;20048;-72
2023/03/13 09:38:48;;;;;;;3.05;1.05;;;;;;;19.36;48.37;99584.88;5031693;28;20037;-72
2023/03/13 09:41:15;;;;;;;3.80;1.10;;;;;;;19.39;48.06;99572.16;5030868;28;20501;-69
2023/03/13 09:43:53;;;;;;;3.40;1.10;;;;;;;19.41;48.03;99553.50;5030936;28;20032;-69
2023/03/13 09:46:38;;;;;;;3.65;1.10;;;;;;;19.37;48.41;99587.31;5030791;28;20037;-68
2023/03/13 09:49:12;;;;;;;3.60;1.00;;;;;;;19.44;47.90;99568.19;5031139;28;20041;-69
2023/03/13 09:51:41;;;;;;;3.75;1.20;;;;;;;19.40;48.13;99565.03;5030368;28;20377;-70
2023/03/13 09:54:38;;;;;;;3.67;1.05;;;;;;;19.33;48.39;99567.53;5031463;28;20124;-72
2023/03/13 09:57:22;;;;;;;2.70;0.90;;;;;;;19.31;48.35;99561.56;5030818;28;20029;-73
2023/03/13 10:00:26;;;;;;;2.92;1.00;;;;;;;19.24;48.32;99570.31;5029444;28;20933;-74
2023/03/13 10:03:29;;;;;;;4.15;1.20;;;;;;;19.21;48.48;99561.69;5029676;28;20080;-71
2023/03/13 10:06:01;;;;;;;2.83;1.00;;;;;;;19.16;48.41;99555.28;5029878;28;20094;-73
2023/03/13 10:08:30;;;;;;;3.55;0.90;;;;;;;19.18;48.26;99551.50;5030931;28;20040;-71
2023/03/13 10:10:59;;;;;;;2.88;1.10;;;;;;;19.17;48.55;99559.56;5028282;28;20037;-73
2023/03/13 10:13:28;;;;;;;4.50;1.23;;;;;;;19.14;48.10;99547.50;5026720;28;20449;-72
2023/03/13 10:16:05;;;;;;;6.15;1.13;;;;;;;19.17;48.16;99562.22;5030438;28;20032;-75
2023/03/13 10:18:31;;;;;;;2.10;1.00;;;;;;;19.13;48.47;99558.25;5031480;28;20049;-70
2023/03/13 10:21:00;;;;;;;3.10;1.23;;;;;;;19.11;48.40;99539.91;5030286;28;20047;-68
2023/03/13 10:23:37;;;;;;;4.07;1.40;;;;;;;19.08;48.45;99550.81;5031245;28;20047;-69
2023/03/13 10:26:03;;;;;;;5.70;1.00;;;;;;;19.08;48.49;99542.88;5029886;28;20044;-68
2023/03/13 10:28:28;;;;;;;4.25;1.20;;;;;;;19.10;48.45;99538.25;5030894;28;20029;-66
2023/03/13 10:31:07;;;;;;;4.78;1.20;;;;;;;19.03;48.83;99538.06;5030867;28;20029;-74
2023/03/13 10:33:35;;;;;;;2.35;0.95;;;;;;;19.02;48.66;99531.13;5031751;28;20037;-71
2023/03/13 10:36:05;;;;;;;4.80;1.45;;;;;;;19.05;48.88;99537.91;5039347;28;20137;-73
2023/03/13 10:38:34;;;;;;;2.40;1.10;;;;;;;18.98;48.88;99516.63;5029940;28;20041;-73
2023/03/13 10:41:17;;;;;;;4.18;1.10;;;;;;;19.00;48.57;99537.59;5031401;28;20021;-73
2023/03/13 10:43:52;;;;;;;4.72;1.15;;;;;;;19.02;48.79;99523.22;5035813;28;20120;-73
2023/03/13 10:46:25;;;;;;;2.28;1.00;;;;;;;19.02;48.58;99519.75;5036001;28;20034;-69
2023/03/13 10:48:53;;;;;;;4.40;1.17;;;;;;;19.01;48.64;99510.22;5033271;28;20041;-73
2023/03/13 10:51:21;;;;;;;2.17;0.80;;;;;;;18.97;48.71;99503.59;5031074;28;20316;-73
2023/03/13 10:53:48;;;;;;;6.25;0.98;;;;;;;18.99;48.59;99509.53;5031490;28;20025;-73
2023/03/13 10:56:18;;;;;;;5.57;1.30;;;;;;;18.96;48.90;99521.25;5032629;28;20038;-73
2023/03/13 10:58:53;;;;;;;7.90;1.30;;;;;;;18.95;49.04;99522.22;5034818;28;20053;-74
2023/03/13 11:01:24;;;;;;;4.28;1.02;;;;;;;18.94;49.02;99520.56;5033826;28;20133;-71
2023/03/13 11:03:52;;;;;;;5.07;1.20;;;;;;;18.93;48.93;99508.38;5035186;28;20036;-74
2023/03/13 11:06:27;;;;;;;4.30;1.20;;;;;;;18.95;48.83;99503.75;5035200;28;20481;-72
2023/03/13 11:09:18;;;;;;;5.60;1.10;;;;;;;18.98;48.75;99510.53;5036077;28;20096;-73
2023/03/13 11:11:53;;;;;;;3.25;0.93;;;;;;;18.97;48.68;99499.13;5031199;28;20576;-73
2023/03/13 11:14:21;;;;;;;5.97;1.10;;;;;;;18.96;48.71;99491.38;5030157;28;20129;-75
2023/03/13 11:16:51;;;;;;;4.55;1.10;;;;;;;18.93;48.90;99508.38;5030579;28;20060;-72
2023/03/13 11:19:42;;;;;;;2.75;1.00;;;;;;;18.91;48.79;99497.13;5033150;28;20041;-72
2023/03/13 11:22:13;;;;;;;3.20;1.30;;;;;;;18.93;48.44;99518.09;5034227;28;20039;-72
2023/03/13 11:24:58;;;;;;;5.53;1.00;;;;;;;18.92;48.73;99508.53;5031674;28;20064;-72
2023/03/13 11:27:28;;;;;;;2.50;1.00;;;;;;;18.89;48.61;99496.47;5035394;28;20120;-74
2023/03/13 11:30:21;;;;;;;3.65;1.00;;;;;;;18.85;48.57;99480.13;5034843;28;20041;-71
2023/03/13 11:32:57;;;;;;;3.60;1.10;;;;;;;18.85;48.68;99458.22;5035323;28;20033;-73
2023/03/13 11:35:36;;;;;;;3.83;0.93;;;;;;;18.91;48.58;99483.94;5034377;28;20094;-72